Time,TemperatureF,DewpointF,PressureIn,WindDirection,WindDirectionDegrees,WindSpeedMPH,WindSpeedGustMPH,Humidity,HourlyPrecipIn,Conditions,Clouds,dailyrainin,SolarRadiationWatts/m^2,SoftwareType,DateUTC
2013-11-12 00:01:00,45.8,28.7,30.02,NNE,17,0.0,0.0,51,0.00,BKN,,0.00,0.0,WeatherDisplay:10.37,2013-11-12 05:01:00,
2013-11-12 00:02:00,45.8,28.7,30.02,NNE,17,0.0,0.0,51,0.00,BKN,,0.00,0.0,WeatherDisplay:10.37,2013-11-12 05:02:00,
2013-11-12 00:03:00,45.8,29.2,30.01,NNE,17,0.0,0.0,52,0.00,BKN,,0.00,0.0,WeatherDisplay:10.37,2013-11-12 05:03:00,
2013-11-12 00:04:00,45.8,28.7,30.01,NNE,17,0.0,0.0,51,0.00,BKN,,0.00,0.0,WeatherDisplay:10.37,2013-11-12 05:04:00,
2013-11-12 00:09:00,45.7,29.5,30.01,NNE,17,0.0,0.0,53,0.00,BKN,,0.00,0.0,WeatherDisplay:10.37,2013-11-12 05:09:00,
2013-11-12 00:14:00,45.4,28.8,30.01,NNE,17,0.0,0.0,52,0.00,BKN,,0.00,0.0,WeatherDisplay:10.37,2013-11-12 05:14:00,
2013-11-12 00:19:00,45.4,29.3,30.01,NNE,17,0.0,0.0,53,0.00,BKN,,0.00,0.0,WeatherDisplay:10.37,2013-11-12 05:19:00,
2013-11-12 00:24:00,45.4,29.3,30.00,NNE,17,0.0,0.0,53,0.00,BKN,,0.00,0.0,WeatherDisplay:10.37,2013-11-12 05:24:00,
2013-11-12 00:29:00,45.2,28.6,30.00,NNE,17,0.0,0.0,52,0.00,BKN,,0.00,0.0,WeatherDisplay:10.37,2013-11-12 05:29:00,
2013-11-12 00:34:00,45.2,29.1,30.01,NNE,17,0.0,0.0,53,0.00,BKN,,0.00,0.0,WeatherDisplay:10.37,2013-11-12 05:34:00,
2013-11-12 00:39:00,45.1,29.0,30.00,NNE,17,0.0,0.0,53,0.00,BKN,,0.00,0.0,WeatherDisplay:10.37,2013-11-12 05:39:00,
2013-11-12 00:44:00,45.1,28.5,30.00,NNE,17,0.0,0.0,52,0.00,BKN,,0.00,0.0,WeatherDisplay:10.37,2013-11-12 05:44:00,
2013-11-12 00:49:00,45.1,29.0,30.00,NNE,17,0.0,0.0,53,0.00,BKN,,0.00,0.0,WeatherDisplay:10.37,2013-11-12 05:49:00,
2013-11-12 00:54:00,45.1,29.9,30.00,NNE,17,0.0,0.0,55,0.00,BKN,,0.00,0.0,WeatherDisplay:10.37,2013-11-12 05:54:00,
2013-11-12 00:59:00,44.8,30.0,30.00,NNE,17,0.0,0.0,56,0.00,BKN,,0.00,0.0,WeatherDisplay:10.37,2013-11-12 05:59:00,
2013-11-12 01:04:00,44.6,30.3,30.00,NNE,17,0.0,0.0,57,0.00,SCT,,0.00,0.0,WeatherDisplay:10.37,2013-11-12 06:04:00,
2013-11-12 01:09:00,44.5,30.2,30.00,NNE,17,0.0,0.0,57,0.00,SCT,,0.00,0.0,WeatherDisplay:10.37,2013-11-12 06:09:00,
2013-11-12 01:14:00,44.3,30.4,30.00,NNE,17,0.0,0.0,58,0.00,SCT,,0.00,0.0,WeatherDisplay:10.37,2013-11-12 06:14:00,
2013-11-12 01:19:00,44.2,30.8,30.00,NNE,17,0.0,0.0,59,0.00,SCT,,0.00,0.0,WeatherDisplay:10.37,2013-11-12 06:19:00,
2013-11-12 01:24:00,44.2,30.3,30.00,NNE,17,0.0,0.0,58,0.00,SCT,,0.00,0.0,WeatherDisplay:10.37,2013-11-12 06:24:00,
2013-11-12 01:29:00,44.2,31.2,30.00,NNE,17,0.0,0.0,60,0.00,SCT,,0.00,0.0,WeatherDisplay:10.37,2013-11-12 06:29:00,
2013-11-12 01:34:00,44.2,31.2,30.00,NNE,17,0.0,0.0,60,0.00,SCT,,0.00,0.0,WeatherDisplay:10.37,2013-11-12 06:34:00,
2013-11-12 01:39:00,44.1,31.5,29.99,NNE,17,0.0,0.0,61,0.00,SCT,,0.00,0.0,WeatherDisplay:10.37,2013-11-12 06:39:00,
2013-11-12 01:44:00,44.1,31.5,29.99,NNE,17,0.0,0.0,61,0.00,SCT,,0.00,0.0,WeatherDisplay:10.37,2013-11-12 06:44:00,
2013-11-12 01:49:00,44.1,31.1,30.00,NNE,17,0.0,0.0,60,0.00,SCT,,0.00,0.0,WeatherDisplay:10.37,2013-11-12 06:49:00,
2013-11-12 01:54:00,44.1,31.1,30.00,NNE,17,0.0,0.0,60,0.00,SCT,,0.00,0.0,WeatherDisplay:10.37,2013-11-12 06:54:00,
2013-11-12 01:59:00,44.1,31.5,30.00,NNE,17,0.0,0.0,61,0.00,SCT,,0.00,0.0,WeatherDisplay:10.37,2013-11-12 06:59:00,
2013-11-12 02:04:00,44.1,31.5,30.00,NNE,17,0.0,0.0,61,0.00,OVC,,0.00,0.0,WeatherDisplay:10.37,2013-11-12 07:04:00,
2013-11-12 02:09:00,44.1,31.5,30.00,NNE,17,0.0,0.0,61,0.00,OVC,,0.00,0.0,WeatherDisplay:10.37,2013-11-12 07:09:00,
2013-11-12 02:14:00,44.1,31.1,29.99,NNE,17,0.1,1.5,60,0.00,OVC,,0.00,0.0,WeatherDisplay:10.37,2013-11-12 07:14:00,
2013-11-12 02:19:00,44.3,30.4,30.00,NNE,17,0.0,0.0,58,0.00,OVC,,0.00,0.0,WeatherDisplay:10.37,2013-11-12 07:19:00,
2013-11-12 02:24:00,44.6,31.1,30.00,NNE,17,0.0,0.0,59,0.00,OVC,,0.00,0.0,WeatherDisplay:10.37,2013-11-12 07:24:00,
2013-11-12 02:29:00,44.5,31.5,30.00,NNE,17,0.0,0.0,60,0.00,OVC,,0.00,0.0,WeatherDisplay:10.37,2013-11-12 07:29:00,
2013-11-12 02:34:00,44.5,31.5,30.00,NNE,17,0.0,0.0,60,0.00,OVC,,0.00,0.0,WeatherDisplay:10.37,2013-11-12 07:34:00,
2013-11-12 02:39:00,44.5,31.9,30.00,NNE,17,0.0,0.0,61,0.00,OVC,,0.00,0.0,WeatherDisplay:10.37,2013-11-12 07:39:00,
2013-11-12 02:44:00,44.2,31.6,30.00,NNE,17,0.0,0.0,61,0.00,OVC,,0.00,0.0,WeatherDisplay:10.37,2013-11-12 07:44:00,
2013-11-12 02:49:00,44.2,32.0,29.99,NNE,17,0.0,1.2,62,0.00,OVC,,0.00,0.0,WeatherDisplay:10.37,2013-11-12 07:49:00,
2013-11-12 02:54:00,44.1,31.9,30.00,NNE,17,0.0,0.0,62,0.00,OVC,,0.00,0.0,WeatherDisplay:10.37,2013-11-12 07:54:00,
2013-11-12 02:59:00,44.1,31.5,30.00,NNW,335,0.1,1.5,61,0.00,OVC,,0.00,0.0,WeatherDisplay:10.37,2013-11-12 07:59:00,
2013-11-12 03:04:00,44.5,30.2,30.00,NW,307,0.0,0.0,57,0.00,BKN,,0.00,0.0,WeatherDisplay:10.37,2013-11-12 08:04:00,
2013-11-12 03:09:00,46.0,30.3,30.00,West,279,8.1,10.4,54,0.00,BKN,,0.00,0.0,WeatherDisplay:10.37,2013-11-12 08:09:00,
2013-11-12 03:14:00,48.9,29.5,30.00,NW,319,9.1,16.1,47,0.00,BKN,,0.00,0.0,WeatherDisplay:10.37,2013-11-12 08:14:00,
2013-11-12 03:19:00,50.8,29.1,30.00,West,275,11.2,15.0,43,0.00,BKN,,0.00,0.0,WeatherDisplay:10.37,2013-11-12 08:19:00,
2013-11-12 03:24:00,51.6,29.2,30.00,WNW,296,1.9,3.5,42,0.00,BKN,,0.00,0.0,WeatherDisplay:10.37,2013-11-12 08:24:00,
2013-11-12 03:29:00,51.6,28.6,29.99,NW,321,3.6,7.5,41,0.00,BKN,,0.00,0.0,WeatherDisplay:10.37,2013-11-12 08:29:00,
2013-11-12 03:34:00,51.7,28.7,30.00,WNW,290,0.8,1.5,41,0.00,BKN,,0.00,0.0,WeatherDisplay:10.37,2013-11-12 08:34:00,
2013-11-12 03:39:00,51.7,28.7,30.00,WNW,288,2.9,8.1,41,0.00,BKN,,0.00,0.0,WeatherDisplay:10.37,2013-11-12 08:39:00,
2013-11-12 03:44:00,51.7,29.3,29.99,WNW,286,0.0,3.5,42,0.00,BKN,,0.00,0.0,WeatherDisplay:10.37,2013-11-12 08:44:00,
2013-11-12 03:49:00,51.7,30.5,30.00,WNW,296,7.5,10.4,44,0.00,BKN,,0.00,0.0,WeatherDisplay:10.37,2013-11-12 08:49:00,
2013-11-12 03:54:00,51.7,31.0,30.00,WNW,287,3.9,9.0,45,0.00,BKN,,0.00,0.0,WeatherDisplay:10.37,2013-11-12 08:54:00,
2013-11-12 03:59:00,51.7,31.6,30.00,NW,318,12.9,15.0,46,0.00,BKN,,0.00,0.0,WeatherDisplay:10.37,2013-11-12 08:59:00,
2013-11-12 04:04:00,51.4,31.8,30.00,NW,324,9.5,13.5,47,0.00,BKN,,0.00,0.0,WeatherDisplay:10.37,2013-11-12 09:04:00,
2013-11-12 04:09:00,51.3,31.7,30.01,NW,309,19.4,19.6,47,0.00,BKN,,0.00,0.0,WeatherDisplay:10.37,2013-11-12 09:09:00,
2013-11-12 04:14:00,51.1,32.1,30.02,NW,304,12.8,16.1,48,0.00,BKN,,0.00,0.0,WeatherDisplay:10.37,2013-11-12 09:14:00,
2013-11-12 04:19:00,50.8,32.8,30.02,NNW,331,24.5,27.0,50,0.00,BKN,,0.00,0.0,WeatherDisplay:10.37,2013-11-12 09:19:00,
2013-11-12 04:24:00,49.8,33.8,30.01,North,351,31.8,31.8,54,0.00,BKN,,0.00,0.0,WeatherDisplay:10.37,2013-11-12 09:24:00,
2013-11-12 04:29:00,48.9,33.9,30.02,NNW,333,27.0,27.0,56,0.00,BKN,,0.00,0.0,WeatherDisplay:10.37,2013-11-12 09:29:00,
2013-11-12 04:34:00,47.9,34.3,30.02,NW,310,23.8,27.0,59,0.00,BKN,,0.00,0.0,WeatherDisplay:10.37,2013-11-12 09:34:00,
2013-11-12 04:39:00,46.7,33.5,30.02,NW,315,23.2,23.2,60,0.00,BKN,,0.00,0.0,WeatherDisplay:10.37,2013-11-12 09:39:00,
2013-11-12 04:44:00,46.1,33.4,30.04,North,355,18.7,25.3,61,0.00,BKN,,0.00,0.0,WeatherDisplay:10.37,2013-11-12 09:44:00,
2013-11-12 04:49:00,45.8,33.5,30.04,NW,319,21.7,24.2,62,0.00,BKN,,0.00,0.0,WeatherDisplay:10.37,2013-11-12 09:49:00,
2013-11-12 04:54:00,45.5,33.2,30.05,NNW,334,21.9,24.0,62,0.00,BKN,,0.00,0.0,WeatherDisplay:10.37,2013-11-12 09:54:00,
2013-11-12 04:59:00,45.2,32.5,30.05,North,351,24.1,25.5,61,0.00,BKN,,0.00,0.0,WeatherDisplay:10.37,2013-11-12 09:59:00,
2013-11-12 05:04:00,45.1,32.4,30.06,North,350,15.8,24.2,61,0.00,OVC,,0.00,0.0,WeatherDisplay:10.37,2013-11-12 10:04:00,
2013-11-12 05:09:00,44.8,32.2,30.07,North,355,19.5,25.3,61,0.00,OVC,,0.00,0.0,WeatherDisplay:10.37,2013-11-12 10:09:00,
2013-11-12 05:14:00,44.5,31.9,30.08,North,350,18.0,18.4,61,0.00,OVC,,0.00,0.0,WeatherDisplay:10.37,2013-11-12 10:14:00,
2013-11-12 05:19:00,44.1,31.5,30.08,NW,309,18.9,24.0,61,0.00,OVC,,0.00,0.0,WeatherDisplay:10.37,2013-11-12 10:19:00,
2013-11-12 05:24:00,43.6,31.4,30.10,North,360,18.4,19.6,62,0.00,OVC,,0.00,0.0,WeatherDisplay:10.37,2013-11-12 10:24:00,
2013-11-12 05:29:00,43.1,31.0,30.10,North,10,9.8,23.0,62,0.00,OVC,,0.00,0.0,WeatherDisplay:10.37,2013-11-12 10:29:00,
2013-11-12 05:34:00,42.8,30.7,30.11,North,355,10.1,15.0,62,0.00,OVC,,0.00,0.0,WeatherDisplay:10.37,2013-11-12 10:34:00,
2013-11-12 05:39:00,42.1,30.0,30.11,NW,311,14.8,19.6,62,0.00,OVC,,0.00,0.0,WeatherDisplay:10.37,2013-11-12 10:39:00,
2013-11-12 05:44:00,41.5,29.4,30.12,North,11,18.6,19.6,62,0.00,OVC,,0.00,0.0,WeatherDisplay:10.37,2013-11-12 10:44:00,
2013-11-12 05:49:00,41.2,29.5,30.12,NNW,347,15.4,18.4,63,0.00,OVC,,0.00,0.0,WeatherDisplay:10.37,2013-11-12 10:49:00,
2013-11-12 05:54:00,41.1,29.5,30.13,NNW,346,10.5,15.0,63,0.00,OVC,,0.00,0.0,WeatherDisplay:10.37,2013-11-12 10:54:00,
2013-11-12 05:59:00,40.8,29.2,30.13,NNE,14,10.5,10.5,63,0.00,OVC,,0.00,0.0,WeatherDisplay:10.37,2013-11-12 10:59:00,
2013-11-12 06:04:00,40.6,29.4,30.13,North,355,12.2,15.0,64,0.00,OVC,,0.00,0.0,WeatherDisplay:10.37,2013-11-12 11:04:00,
2013-11-12 06:09:00,40.3,28.7,30.13,NNW,336,10.0,15.0,63,0.00,OVC,,0.00,0.0,WeatherDisplay:10.37,2013-11-12 11:09:00,
2013-11-12 06:14:00,40.1,28.5,30.13,NNW,348,23.7,25.3,63,0.00,OVC,,0.00,0.0,WeatherDisplay:10.37,2013-11-12 11:14:00,
2013-11-12 06:19:00,39.8,28.2,30.14,NNW,345,20.2,22.5,63,0.00,OVC,,0.00,0.0,WeatherDisplay:10.37,2013-11-12 11:19:00,
2013-11-12 06:24:00,39.6,28.0,30.14,NNW,348,19.0,20.7,63,0.00,OVC,,0.00,0.0,WeatherDisplay:10.37,2013-11-12 11:24:00,
2013-11-12 06:29:00,39.6,28.0,30.15,WNW,301,10.2,23.0,63,0.00,OVC,,0.00,0.0,WeatherDisplay:10.37,2013-11-12 11:29:00,
2013-11-12 06:34:00,39.5,28.3,30.15,NW,316,14.4,16.1,64,0.00,OVC,,0.00,0.0,WeatherDisplay:10.37,2013-11-12 11:34:00,
2013-11-12 06:39:00,39.3,28.1,30.15,NW,325,15.9,19.6,64,0.00,OVC,,0.00,0.0,WeatherDisplay:10.37,2013-11-12 11:39:00,
2013-11-12 06:44:00,39.3,28.1,30.16,NNW,337,6.0,13.8,64,0.00,OVC,,0.00,0.0,WeatherDisplay:10.37,2013-11-12 11:44:00,
2013-11-12 06:49:00,39.2,28.0,30.16,North,355,13.3,16.1,64,0.00,OVC,,0.00,0.0,WeatherDisplay:10.37,2013-11-12 11:49:00,
2013-11-12 06:54:00,39.2,27.7,30.16,North,360,10.0,18.4,63,0.00,OVC,,0.00,0.0,WeatherDisplay:10.37,2013-11-12 11:54:00,
2013-11-12 06:59:00,39.1,27.6,30.17,NW,325,15.3,18.4,63,0.00,OVC,,0.00,0.0,WeatherDisplay:10.37,2013-11-12 11:59:00,
2013-11-12 07:04:00,38.8,27.7,30.18,NNW,331,12.8,16.1,64,0.00,OVC,,0.00,0.0,WeatherDisplay:10.37,2013-11-12 12:04:00,
2013-11-12 07:09:00,38.5,27.4,30.19,North,355,16.1,18.0,64,0.00,OVC,,0.00,0.0,WeatherDisplay:10.37,2013-11-12 12:09:00,
2013-11-12 07:14:00,37.6,27.6,30.20,North,355,23.2,25.3,67,0.00,OVC,,0.00,0.0,WeatherDisplay:10.37,2013-11-12 12:14:00,
2013-11-12 07:20:00,36.6,27.7,30.20,NNW,336,21.4,21.4,70,0.00,OVC,,0.00,0.0,WeatherDisplay:10.37,2013-11-12 12:20:00,
2013-11-12 07:25:00,35.9,28.1,30.21,North,5,16.8,19.6,73,0.00,OVC,,0.00,0.0,WeatherDisplay:10.37,2013-11-12 12:25:00,
2013-11-12 07:30:00,35.6,28.5,30.22,North,355,7.6,13.8,75,0.00,OVC,,0.00,5.0,WeatherDisplay:10.37,2013-11-12 12:30:00,
2013-11-12 07:35:00,35.5,28.7,30.22,North,355,7.4,15.0,76,0.00,OVC,,0.00,9.0,WeatherDisplay:10.37,2013-11-12 12:35:00,
2013-11-12 07:40:00,35.5,28.7,30.23,North,351,3.6,7.5,76,0.00,OVC,,0.00,19.0,WeatherDisplay:10.37,2013-11-12 12:40:00,
2013-11-12 07:45:00,35.5,29.0,30.23,NNW,348,9.9,15.0,77,0.00,OVC,,0.00,16.0,WeatherDisplay:10.37,2013-11-12 12:45:00,
2013-11-12 07:50:00,35.6,29.1,30.23,NNW,335,11.7,13.8,77,0.00,OVC,,0.00,28.0,WeatherDisplay:10.37,2013-11-12 12:50:00,
2013-11-12 07:55:00,35.6,28.8,30.23,NW,321,6.4,13.5,76,0.00,OVC,,0.00,25.0,WeatherDisplay:10.37,2013-11-12 12:55:00,
2013-11-12 08:00:00,35.6,28.1,30.24,NNW,346,13.5,16.1,74,0.00,OVC,,0.00,30.0,WeatherDisplay:10.37,2013-11-12 13:00:00,
2013-11-12 08:05:00,35.9,27.7,30.24,NNE,12,15.0,21.0,72,0.00,OVC,,0.00,26.0,WeatherDisplay:10.37,2013-11-12 13:05:00,
2013-11-12 08:10:00,35.9,26.7,30.25,NNW,342,11.8,15.0,69,0.00,OVC,,0.00,37.0,WeatherDisplay:10.37,2013-11-12 13:10:00,
2013-11-12 08:15:00,36.0,25.7,30.25,North,351,4.5,20.7,66,0.00,OVC,,0.00,39.0,WeatherDisplay:10.37,2013-11-12 13:15:00,
2013-11-12 08:20:00,36.0,25.4,30.25,NE,46,16.6,20.7,65,0.00,OVC,,0.00,33.0,WeatherDisplay:10.37,2013-11-12 13:20:00,
2013-11-12 08:25:00,36.0,25.4,30.25,NNE,26,19.0,27.0,65,0.00,OVC,,0.00,42.0,WeatherDisplay:10.37,2013-11-12 13:25:00,
2013-11-12 08:30:00,35.6,23.5,30.25,NNW,347,18.5,23.0,61,0.00,OVC,,0.00,37.0,WeatherDisplay:10.37,2013-11-12 13:30:00,
2013-11-12 08:35:00,35.5,23.0,30.26,NNW,338,14.0,19.5,60,0.00,OVC,,0.00,70.0,WeatherDisplay:10.37,2013-11-12 13:35:00,
2013-11-12 08:40:00,35.5,23.0,30.26,NNW,331,11.9,18.4,60,0.00,OVC,,0.00,56.0,WeatherDisplay:10.37,2013-11-12 13:40:00,
2013-11-12 08:45:00,35.5,22.6,30.26,North,355,8.3,18.4,59,0.00,OVC,,0.00,54.0,WeatherDisplay:10.37,2013-11-12 13:45:00,
2013-11-12 08:50:00,35.5,22.6,30.27,NW,321,10.7,15.0,59,0.00,OVC,,0.00,97.0,WeatherDisplay:10.37,2013-11-12 13:50:00,
2013-11-12 08:55:00,35.6,21.0,30.27,North,360,9.7,16.5,55,0.00,OVC,,0.00,114.0,WeatherDisplay:10.37,2013-11-12 13:55:00,
2013-11-12 09:00:00,35.6,19.2,30.27,NW,325,15.8,23.0,51,0.00,OVC,,0.00,104.0,WeatherDisplay:10.37,2013-11-12 14:00:00,
2013-11-12 09:05:00,35.6,17.8,30.27,NNW,341,20.8,24.2,48,0.00,OVC,,0.00,90.0,WeatherDisplay:10.37,2013-11-12 14:05:00,
2013-11-12 09:10:00,35.5,16.2,30.27,NNW,338,21.2,22.5,45,0.00,OVC,,0.00,102.0,WeatherDisplay:10.37,2013-11-12 14:10:00,
2013-11-12 09:15:00,35.3,16.0,30.27,North,351,19.7,25.5,45,0.00,OVC,,0.00,83.0,WeatherDisplay:10.37,2013-11-12 14:15:00,
2013-11-12 09:20:00,35.3,16.6,30.28,NW,313,10.1,15.0,46,0.00,OVC,,0.00,79.0,WeatherDisplay:10.37,2013-11-12 14:20:00,
2013-11-12 09:25:00,35.3,16.0,30.28,North,5,21.9,24.2,45,0.00,OVC,,0.00,84.0,WeatherDisplay:10.37,2013-11-12 14:25:00,
2013-11-12 09:30:00,35.3,16.0,30.28,NNW,333,16.6,18.4,45,0.00,OVC,,0.00,83.0,WeatherDisplay:10.37,2013-11-12 14:30:00,
2013-11-12 09:35:00,35.3,16.6,30.28,NNW,334,14.0,15.0,46,0.00,OVC,,0.00,102.0,WeatherDisplay:10.37,2013-11-12 14:35:00,
2013-11-12 09:40:00,35.5,17.2,30.28,NNW,343,16.7,16.7,47,0.00,OVC,,0.00,114.0,WeatherDisplay:10.37,2013-11-12 14:40:00,
2013-11-12 09:45:00,35.6,16.8,30.28,NNW,344,13.7,19.6,46,0.00,OVC,,0.00,113.0,WeatherDisplay:10.37,2013-11-12 14:45:00,
2013-11-12 09:50:00,35.6,16.8,30.29,NNW,338,8.8,16.1,46,0.00,OVC,,0.00,107.0,WeatherDisplay:10.37,2013-11-12 14:50:00,
2013-11-12 09:55:00,35.8,17.0,30.29,NNW,332,12.4,13.8,46,0.00,OVC,,0.00,109.0,WeatherDisplay:10.37,2013-11-12 14:55:00,
2013-11-12 10:00:00,35.6,16.3,30.29,NNW,346,13.5,16.1,45,0.00,OVC,,0.00,90.0,WeatherDisplay:10.37,2013-11-12 15:00:00,
2013-11-12 10:05:00,35.6,16.3,30.29,North,355,12.3,15.0,45,0.00,OVC,,0.00,93.0,WeatherDisplay:10.37,2013-11-12 15:05:00,
2013-11-12 10:10:00,35.8,16.5,30.29,NNW,331,9.3,12.0,45,0.00,OVC,,0.00,86.0,WeatherDisplay:10.37,2013-11-12 15:10:00,
2013-11-12 10:15:00,35.8,16.0,30.29,NW,315,13.3,23.0,44,0.00,OVC,,0.00,76.0,WeatherDisplay:10.37,2013-11-12 15:15:00,
2013-11-12 10:20:00,35.6,14.7,30.29,NNW,335,18.6,19.6,42,0.00,OVC,,0.00,76.0,WeatherDisplay:10.37,2013-11-12 15:20:00,
2013-11-12 10:25:00,35.6,15.8,30.29,NNW,342,9.5,10.5,44,0.00,OVC,,0.00,74.0,WeatherDisplay:10.37,2013-11-12 15:25:00,
2013-11-12 10:30:00,35.8,16.0,30.29,NNW,342,13.7,19.6,44,0.00,OVC,,0.00,76.0,WeatherDisplay:10.37,2013-11-12 15:30:00,
2013-11-12 10:35:00,35.8,16.0,30.30,North,350,15.2,20.7,44,0.00,OVC,,0.00,79.0,WeatherDisplay:10.37,2013-11-12 15:35:00,
2013-11-12 10:40:00,35.8,16.0,30.29,NNW,337,13.7,15.0,44,0.00,OVC,,0.00,76.0,WeatherDisplay:10.37,2013-11-12 15:40:00,
2013-11-12 10:45:00,35.8,16.0,30.29,NNW,332,12.9,15.0,44,0.00,OVC,,0.00,74.0,WeatherDisplay:10.37,2013-11-12 15:45:00,
2013-11-12 10:50:00,35.8,16.5,30.30,NNW,333,6.6,10.4,45,0.00,OVC,,0.00,70.0,WeatherDisplay:10.37,2013-11-12 15:50:00,
2013-11-12 10:55:00,35.8,16.0,30.29,North,355,8.4,16.5,44,0.00,OVC,,0.00,69.0,WeatherDisplay:10.37,2013-11-12 15:55:00,
2013-11-12 11:00:00,35.9,16.6,30.29,NNW,344,4.3,8.1,45,0.00,OVC,,0.00,72.0,WeatherDisplay:10.37,2013-11-12 16:00:00,
2013-11-12 11:05:00,35.9,16.6,30.29,NNW,348,12.6,15.0,45,0.00,OVC,,0.00,81.0,WeatherDisplay:10.37,2013-11-12 16:05:00,
2013-11-12 11:10:00,35.9,16.1,30.29,North,355,15.3,19.6,44,0.00,OVC,,0.00,84.0,WeatherDisplay:10.37,2013-11-12 16:10:00,
2013-11-12 11:15:00,36.0,15.6,30.29,NW,319,14.0,18.4,43,0.00,OVC,,0.00,90.0,WeatherDisplay:10.37,2013-11-12 16:15:00,
2013-11-12 11:20:00,36.2,16.9,30.29,NNW,337,7.7,8.1,45,0.00,OVC,,0.00,97.0,WeatherDisplay:10.37,2013-11-12 16:20:00,
2013-11-12 11:25:00,36.3,15.9,30.29,NW,319,12.7,16.1,43,0.00,OVC,,0.00,114.0,WeatherDisplay:10.37,2013-11-12 16:25:00,
2013-11-12 11:30:00,36.5,15.6,30.29,NNW,344,10.7,20.7,42,0.00,OVC,,0.00,128.0,WeatherDisplay:10.37,2013-11-12 16:30:00,
2013-11-12 11:35:00,36.6,14.5,30.29,NNW,345,21.8,21.8,40,0.00,OVC,,0.00,144.0,WeatherDisplay:10.37,2013-11-12 16:35:00,
2013-11-12 11:40:00,36.6,14.5,30.28,NNW,333,13.4,24.2,40,0.00,OVC,,0.00,134.0,WeatherDisplay:10.37,2013-11-12 16:40:00,
2013-11-12 11:45:00,36.6,13.9,30.28,NNW,341,19.2,19.6,39,0.00,OVC,,0.00,151.0,WeatherDisplay:10.37,2013-11-12 16:45:00,
2013-11-12 11:50:00,36.6,13.9,30.28,NW,323,20.4,24.0,39,0.00,OVC,,0.00,146.0,WeatherDisplay:10.37,2013-11-12 16:50:00,
2013-11-12 11:55:00,36.6,12.7,30.28,North,360,29.6,29.9,37,0.00,OVC,,0.00,132.0,WeatherDisplay:10.37,2013-11-12 16:55:00,
2013-11-12 12:00:00,36.6,12.7,30.28,North,355,20.1,21.0,37,0.00,OVC,,0.00,127.0,WeatherDisplay:10.37,2013-11-12 17:00:00,
2013-11-12 12:05:00,36.6,13.9,30.28,NNW,335,9.2,15.0,39,0.00,BKN,,0.00,130.0,WeatherDisplay:10.37,2013-11-12 17:05:00,
2013-11-12 12:10:00,36.8,14.1,30.28,WNW,298,24.2,31.1,39,0.00,BKN,,0.00,125.0,WeatherDisplay:10.37,2013-11-12 17:10:00,
2013-11-12 12:15:00,36.8,13.5,30.28,NW,321,16.0,18.4,38,0.00,BKN,,0.00,114.0,WeatherDisplay:10.37,2013-11-12 17:15:00,
2013-11-12 12:20:00,36.8,12.3,30.28,North,355,27.6,27.6,36,0.00,BKN,,0.00,113.0,WeatherDisplay:10.37,2013-11-12 17:20:00,
2013-11-12 12:25:00,36.9,12.4,30.28,NW,311,17.7,23.0,36,0.00,BKN,,0.00,114.0,WeatherDisplay:10.37,2013-11-12 17:25:00,
2013-11-12 12:30:00,36.9,12.4,30.28,NNW,332,24.1,26.5,36,0.00,BKN,,0.00,104.0,WeatherDisplay:10.37,2013-11-12 17:30:00,
2013-11-12 12:35:00,36.8,12.3,30.28,NNW,346,10.5,18.0,36,0.00,BKN,,0.00,111.0,WeatherDisplay:10.37,2013-11-12 17:35:00,
2013-11-12 12:40:00,36.8,12.9,30.28,NNW,327,20.5,22.5,37,0.00,BKN,,0.00,111.0,WeatherDisplay:10.37,2013-11-12 17:40:00,
2013-11-12 12:45:00,36.6,12.1,30.28,NW,324,18.8,19.6,36,0.00,BKN,,0.00,130.0,WeatherDisplay:10.37,2013-11-12 17:45:00,
2013-11-12 12:50:00,36.8,12.9,30.28,North,5,14.5,16.1,37,0.00,BKN,,0.00,144.0,WeatherDisplay:10.37,2013-11-12 17:50:00,
2013-11-12 12:55:00,36.8,12.3,30.28,North,355,23.6,23.6,36,0.00,BKN,,0.00,144.0,WeatherDisplay:10.37,2013-11-12 17:55:00,
2013-11-12 13:00:00,36.9,13.0,30.28,North,9,17.0,18.0,37,0.00,BKN,,0.00,148.0,WeatherDisplay:10.37,2013-11-12 18:00:00,
2013-11-12 13:05:00,36.9,13.0,30.28,NW,317,11.3,20.7,37,0.00,BKN,,0.00,162.0,WeatherDisplay:10.37,2013-11-12 18:05:00,
2013-11-12 13:10:00,37.0,12.5,30.28,NNW,340,14.8,19.6,36,0.00,BKN,,0.00,174.0,WeatherDisplay:10.37,2013-11-12 18:10:00,
2013-11-12 13:15:00,37.2,12.0,30.28,NW,325,16.8,16.8,35,0.00,BKN,,0.00,199.0,WeatherDisplay:10.37,2013-11-12 18:15:00,
2013-11-12 13:20:00,37.3,12.7,30.28,NW,321,17.3,20.7,36,0.00,BKN,,0.00,207.0,WeatherDisplay:10.37,2013-11-12 18:20:00,
2013-11-12 13:25:00,37.5,13.6,30.28,NW,315,19.8,21.0,37,0.00,BKN,,0.00,211.0,WeatherDisplay:10.37,2013-11-12 18:25:00,
2013-11-12 13:30:00,37.6,13.0,30.28,North,349,20.4,20.4,36,0.00,BKN,,0.00,216.0,WeatherDisplay:10.37,2013-11-12 18:30:00,
2013-11-12 13:35:00,37.8,12.6,30.28,NW,315,15.6,19.6,35,0.00,BKN,,0.00,202.0,WeatherDisplay:10.37,2013-11-12 18:35:00,
2013-11-12 13:40:00,37.9,11.3,30.28,NNW,342,26.2,26.2,33,0.00,BKN,,0.00,220.0,WeatherDisplay:10.37,2013-11-12 18:40:00,
2013-11-12 13:45:00,37.9,11.3,30.28,North,355,13.0,15.0,33,0.00,BKN,,0.00,167.0,WeatherDisplay:10.37,2013-11-12 18:45:00,
2013-11-12 13:50:00,37.9,11.3,30.29,NNW,327,21.1,21.1,33,0.00,BKN,,0.00,155.0,WeatherDisplay:10.37,2013-11-12 18:50:00,
2013-11-12 13:55:00,37.8,11.2,30.29,NW,309,11.3,16.1,33,0.00,BKN,,0.00,153.0,WeatherDisplay:10.37,2013-11-12 18:55:00,
2013-11-12 14:00:00,37.6,11.0,30.29,North,355,11.8,15.0,33,0.00,BKN,,0.00,148.0,WeatherDisplay:10.37,2013-11-12 19:00:00,
2013-11-12 14:05:00,37.8,11.9,30.29,NW,317,13.8,16.5,34,0.00,BKN,,0.00,155.0,WeatherDisplay:10.37,2013-11-12 19:05:00,
2013-11-12 14:10:00,37.6,9.6,30.29,NNW,331,21.5,23.0,31,0.00,BKN,,0.00,153.0,WeatherDisplay:10.37,2013-11-12 19:10:00,
2013-11-12 14:15:00,37.6,9.6,30.29,NNW,333,19.6,19.6,31,0.00,BKN,,0.00,151.0,WeatherDisplay:10.37,2013-11-12 19:15:00,
2013-11-12 14:20:00,37.8,9.8,30.29,NNW,346,13.1,19.6,31,0.00,BKN,,0.00,155.0,WeatherDisplay:10.37,2013-11-12 19:20:00,
2013-11-12 14:25:00,37.8,9.1,30.29,NNW,341,11.0,16.1,30,0.00,BKN,,0.00,155.0,WeatherDisplay:10.37,2013-11-12 19:25:00,
2013-11-12 14:30:00,37.8,9.8,30.29,NNW,344,22.3,22.3,31,0.00,BKN,,0.00,160.0,WeatherDisplay:10.37,2013-11-12 19:30:00,
2013-11-12 14:35:00,37.9,10.6,30.29,North,349,10.9,15.0,32,0.00,BKN,,0.00,165.0,WeatherDisplay:10.37,2013-11-12 19:35:00,
2013-11-12 14:40:00,38.0,9.3,30.29,NNW,339,18.0,20.7,30,0.00,BKN,,0.00,176.0,WeatherDisplay:10.37,2013-11-12 19:40:00,
2013-11-12 14:45:00,38.2,10.2,30.30,WNW,298,14.8,18.4,31,0.00,BKN,,0.00,171.0,WeatherDisplay:10.37,2013-11-12 19:45:00,
2013-11-12 14:50:00,38.2,10.2,30.30,NNW,329,11.8,15.0,31,0.00,BKN,,0.00,178.0,WeatherDisplay:10.37,2013-11-12 19:50:00,
2013-11-12 14:55:00,38.2,9.4,30.30,NNW,340,19.9,19.9,30,0.00,BKN,,0.00,151.0,WeatherDisplay:10.37,2013-11-12 19:55:00,
2013-11-12 15:00:00,38.0,9.3,30.30,North,355,10.9,20.7,30,0.00,BKN,,0.00,130.0,WeatherDisplay:10.37,2013-11-12 20:00:00,
2013-11-12 15:05:00,38.0,9.3,30.30,NW,323,16.2,16.5,30,0.00,OVC,,0.00,116.0,WeatherDisplay:10.37,2013-11-12 20:05:00,
2013-11-12 15:10:00,38.0,10.0,30.30,NW,313,8.8,19.5,31,0.00,OVC,,0.00,109.0,WeatherDisplay:10.37,2013-11-12 20:10:00,
2013-11-12 15:15:00,37.9,10.6,30.30,WNW,300,18.1,18.1,32,0.00,OVC,,0.00,111.0,WeatherDisplay:10.37,2013-11-12 20:15:00,
2013-11-12 15:20:00,37.9,9.9,30.30,NNW,331,22.9,22.9,31,0.00,OVC,,0.00,107.0,WeatherDisplay:10.37,2013-11-12 20:20:00,
2013-11-12 15:25:00,37.8,9.8,30.30,NNW,343,17.2,18.4,31,0.00,OVC,,0.00,104.0,WeatherDisplay:10.37,2013-11-12 20:25:00,
2013-11-12 15:30:00,37.8,9.1,30.30,NNW,327,16.1,16.5,30,0.00,OVC,,0.00,97.0,WeatherDisplay:10.37,2013-11-12 20:30:00,
2013-11-12 15:35:00,37.8,9.1,30.31,NNW,329,21.4,24.2,30,0.00,OVC,,0.00,90.0,WeatherDisplay:10.37,2013-11-12 20:35:00,
2013-11-12 15:40:00,37.6,8.9,30.31,NNE,16,17.6,23.0,30,0.00,OVC,,0.00,90.0,WeatherDisplay:10.37,2013-11-12 20:40:00,
2013-11-12 15:45:00,37.5,8.8,30.31,NNW,328,19.4,25.3,30,0.00,OVC,,0.00,83.0,WeatherDisplay:10.37,2013-11-12 20:45:00,
2013-11-12 15:50:00,37.5,9.6,30.31,NNW,342,15.3,16.1,31,0.00,OVC,,0.00,77.0,WeatherDisplay:10.37,2013-11-12 20:50:00,
2013-11-12 15:55:00,37.3,10.1,30.31,NNW,340,11.7,16.5,32,0.00,OVC,,0.00,70.0,WeatherDisplay:10.37,2013-11-12 20:55:00,
2013-11-12 16:00:00,37.2,10.0,30.31,NNW,333,14.2,18.4,32,0.00,OVC,,0.00,65.0,WeatherDisplay:10.37,2013-11-12 21:00:00,
2013-11-12 16:05:00,37.0,9.8,30.32,NW,323,19.7,19.7,32,0.00,OVC,,0.00,56.0,WeatherDisplay:10.37,2013-11-12 21:05:00,
2013-11-12 16:10:00,36.9,9.7,30.32,NW,320,18.2,18.4,32,0.00,OVC,,0.00,53.0,WeatherDisplay:10.37,2013-11-12 21:10:00,
2013-11-12 16:15:00,36.8,9.7,30.33,NNW,334,13.0,18.4,32,0.00,OVC,,0.00,47.0,WeatherDisplay:10.37,2013-11-12 21:15:00,
2013-11-12 16:20:00,36.8,10.3,30.33,NNW,334,17.1,22.5,33,0.00,OVC,,0.00,40.0,WeatherDisplay:10.37,2013-11-12 21:20:00,
2013-11-12 16:25:00,36.6,10.2,30.33,WNW,300,13.3,18.4,33,0.00,OVC,,0.00,37.0,WeatherDisplay:10.37,2013-11-12 21:25:00,
2013-11-12 16:30:00,36.5,9.4,30.33,WNW,298,16.3,25.5,32,0.00,OVC,,0.00,35.0,WeatherDisplay:10.37,2013-11-12 21:30:00,
2013-11-12 16:35:00,36.6,9.5,30.34,NNW,334,11.3,15.0,32,0.00,OVC,,0.00,30.0,WeatherDisplay:10.37,2013-11-12 21:35:00,
2013-11-12 16:40:00,36.5,10.1,30.34,NW,317,13.5,19.6,33,0.00,OVC,,0.00,25.0,WeatherDisplay:10.37,2013-11-12 21:40:00,
2013-11-12 16:45:00,36.3,9.2,30.34,North,349,16.3,18.4,32,0.00,OVC,,0.00,16.0,WeatherDisplay:10.37,2013-11-12 21:45:00,
2013-11-12 16:50:00,36.2,9.1,30.34,West,274,12.8,19.6,32,0.00,OVC,,0.00,9.0,WeatherDisplay:10.37,2013-11-12 21:50:00,
2013-11-12 16:55:00,35.9,8.9,30.34,NW,315,19.7,23.0,32,0.00,OVC,,0.00,5.0,WeatherDisplay:10.37,2013-11-12 21:55:00,
2013-11-12 17:00:00,35.8,8.8,30.34,NW,322,17.7,18.4,32,0.00,OVC,,0.00,0.0,WeatherDisplay:10.37,2013-11-12 22:00:00,
2013-11-12 17:05:00,35.6,8.6,30.35,NW,321,24.1,24.1,32,0.00,BKN,,0.00,0.0,WeatherDisplay:10.37,2013-11-12 22:05:00,
2013-11-12 17:10:00,35.6,8.6,30.34,North,355,20.0,23.0,32,0.00,BKN,,0.00,0.0,WeatherDisplay:10.37,2013-11-12 22:10:00,
2013-11-12 17:15:00,35.6,8.6,30.35,NW,318,16.1,23.0,32,0.00,BKN,,0.00,0.0,WeatherDisplay:10.37,2013-11-12 22:15:00,
2013-11-12 17:20:00,35.3,9.0,30.35,NNW,342,16.5,18.0,33,0.00,BKN,,0.00,0.0,WeatherDisplay:10.37,2013-11-12 22:20:00,
2013-11-12 17:25:00,35.0,8.7,30.35,NNW,333,12.2,16.1,33,0.00,BKN,,0.00,0.0,WeatherDisplay:10.37,2013-11-12 22:25:00,
2013-11-12 17:30:00,34.9,8.7,30.35,NW,306,18.5,23.0,33,0.00,BKN,,0.00,0.0,WeatherDisplay:10.37,2013-11-12 22:30:00,
2013-11-12 17:35:00,35.0,8.7,30.36,NNW,332,16.0,16.0,33,0.00,BKN,,0.00,0.0,WeatherDisplay:10.37,2013-11-12 22:35:00,
2013-11-12 17:40:00,34.9,8.7,30.36,NW,308,15.5,18.0,33,0.00,BKN,,0.00,0.0,WeatherDisplay:10.37,2013-11-12 22:40:00,
2013-11-12 17:45:00,34.9,8.7,30.36,NNW,337,16.8,23.0,33,0.00,BKN,,0.00,0.0,WeatherDisplay:10.37,2013-11-12 22:45:00,
2013-11-12 17:50:00,34.9,8.7,30.36,North,349,12.2,16.5,33,0.00,BKN,,0.00,0.0,WeatherDisplay:10.37,2013-11-12 22:50:00,
2013-11-12 17:55:00,34.6,8.4,30.36,NNW,345,15.8,19.6,33,0.00,BKN,,0.00,0.0,WeatherDisplay:10.37,2013-11-12 22:55:00,
2013-11-12 18:00:00,34.6,8.4,30.36,NNW,327,9.1,15.0,33,0.00,BKN,,0.00,0.0,WeatherDisplay:10.37,2013-11-12 23:00:00,
2013-11-12 18:05:00,34.4,8.2,30.37,NNW,344,11.5,18.4,33,0.00,BKN,,0.00,0.0,WeatherDisplay:10.37,2013-11-12 23:05:00,
2013-11-12 18:10:00,34.3,8.1,30.38,NW,323,8.7,9.0,33,0.00,BKN,,0.00,0.0,WeatherDisplay:10.37,2013-11-12 23:10:00,
2013-11-12 18:15:00,34.1,8.0,30.38,North,355,4.8,13.5,33,0.00,BKN,,0.00,0.0,WeatherDisplay:10.37,2013-11-12 23:15:00,
2013-11-12 18:20:00,34.0,8.5,30.38,NNW,329,5.4,9.2,34,0.00,BKN,,0.00,0.0,WeatherDisplay:10.37,2013-11-12 23:20:00,
2013-11-12 18:25:00,33.5,8.7,30.38,NW,321,5.7,8.1,35,0.00,BKN,,0.00,0.0,WeatherDisplay:10.37,2013-11-12 23:25:00,
2013-11-12 18:30:00,33.5,9.4,30.38,NNW,333,5.7,10.5,36,0.00,BKN,,0.00,0.0,WeatherDisplay:10.37,2013-11-12 23:30:00,
2013-11-12 18:35:00,33.2,9.7,30.38,NW,310,7.3,9.2,37,0.00,BKN,,0.00,0.0,WeatherDisplay:10.37,2013-11-12 23:35:00,
2013-11-12 18:40:00,32.9,10.0,30.38,NW,308,9.7,10.5,38,0.00,BKN,,0.00,0.0,WeatherDisplay:10.37,2013-11-12 23:40:00,
2013-11-12 18:45:00,32.9,10.0,30.38,NW,317,7.1,13.8,38,0.00,BKN,,0.00,0.0,WeatherDisplay:10.37,2013-11-12 23:45:00,
2013-11-12 18:50:00,32.9,10.0,30.39,NNW,338,11.5,12.0,38,0.00,BKN,,0.00,0.0,WeatherDisplay:10.37,2013-11-12 23:50:00,
2013-11-12 18:55:00,32.8,10.5,30.39,NW,310,8.8,12.0,39,0.00,BKN,,0.00,0.0,WeatherDisplay:10.37,2013-11-12 23:55:00,
2013-11-12 19:00:00,32.7,10.4,30.39,NW,313,5.3,8.1,39,0.00,BKN,,0.00,0.0,WeatherDisplay:10.37,2013-11-13 00:00:00,
2013-11-12 19:05:00,32.7,11.0,30.39,NW,316,2.3,6.0,40,0.00,BKN,,0.00,0.0,WeatherDisplay:10.37,2013-11-13 00:05:00,
2013-11-12 19:10:00,32.5,10.8,30.39,NNW,327,8.6,10.4,40,0.00,BKN,,0.00,0.0,WeatherDisplay:10.37,2013-11-13 00:10:00,
2013-11-12 19:16:00,32.4,10.7,30.40,NW,317,3.3,3.5,40,0.00,OVC,,0.00,0.0,WeatherDisplay:10.37,2013-11-13 00:16:00,
2013-11-12 19:21:00,32.4,11.3,30.40,NW,317,0.7,3.5,41,0.00,OVC,,0.00,0.0,WeatherDisplay:10.37,2013-11-13 00:21:00,
2013-11-12 19:26:00,32.4,11.3,30.40,NW,315,0.0,1.2,41,0.00,OVC,,0.00,0.0,WeatherDisplay:10.37,2013-11-13 00:26:00,
2013-11-12 19:31:00,32.1,11.6,30.40,NW,315,0.0,0.0,42,0.00,OVC,,0.00,0.0,WeatherDisplay:10.37,2013-11-13 00:31:00,
2013-11-12 19:36:00,31.6,11.1,30.40,NW,315,0.0,0.0,42,0.00,OVC,,0.00,0.0,WeatherDisplay:10.37,2013-11-13 00:36:00,
2013-11-12 19:41:00,31.3,11.4,30.41,NW,315,0.1,1.5,43,0.00,OVC,,0.00,0.0,WeatherDisplay:10.37,2013-11-13 00:41:00,
2013-11-12 19:46:00,31.0,11.1,30.41,NW,315,0.0,0.0,43,0.00,OVC,,0.00,0.0,WeatherDisplay:10.37,2013-11-13 00:46:00,
2013-11-12 19:51:00,30.7,11.3,30.41,NW,315,0.0,0.0,44,0.00,OVC,,0.00,0.0,WeatherDisplay:10.37,2013-11-13 00:51:00,
2013-11-12 19:56:00,30.3,11.5,30.41,NW,315,0.0,0.0,45,0.00,OVC,,0.00,0.0,WeatherDisplay:10.37,2013-11-13 00:56:00,
2013-11-12 20:01:00,29.8,11.5,30.41,NW,315,0.0,0.0,46,0.00,OVC,,0.00,0.0,WeatherDisplay:10.37,2013-11-13 01:01:00,
2013-11-12 20:06:00,29.5,11.7,30.41,NW,315,0.0,0.0,47,0.00,OVC,,0.00,0.0,WeatherDisplay:10.37,2013-11-13 01:06:00,
2013-11-12 20:11:00,29.1,11.4,30.41,NW,315,0.0,0.0,47,0.00,OVC,,0.00,0.0,WeatherDisplay:10.37,2013-11-13 01:11:00,
2013-11-12 20:16:00,28.7,11.5,30.41,NW,315,0.1,1.2,48,0.00,FEW,,0.00,0.0,WeatherDisplay:10.37,2013-11-13 01:16:00,
2013-11-12 20:21:00,28.2,11.9,30.41,NW,315,0.8,1.5,50,0.00,FEW,,0.00,0.0,WeatherDisplay:10.37,2013-11-13 01:21:00,
2013-11-12 20:26:00,27.9,12.1,30.41,NW,315,0.0,0.0,51,0.00,FEW,,0.00,0.0,WeatherDisplay:10.37,2013-11-13 01:26:00,
2013-11-12 20:31:00,27.6,12.2,30.41,NW,315,0.7,1.2,52,0.00,FEW,,0.00,0.0,WeatherDisplay:10.37,2013-11-13 01:31:00,
2013-11-12 20:36:00,27.3,12.0,30.41,NW,315,0.1,1.5,52,0.00,FEW,,0.00,0.0,WeatherDisplay:10.37,2013-11-13 01:36:00,
2013-11-12 20:41:00,27.0,12.1,30.41,NW,315,0.1,1.5,53,0.00,FEW,,0.00,0.0,WeatherDisplay:10.37,2013-11-13 01:41:00,
2013-11-12 20:46:00,26.6,12.2,30.41,NW,315,0.0,0.0,54,0.00,FEW,,0.00,0.0,WeatherDisplay:10.37,2013-11-13 01:46:00,
2013-11-12 20:51:00,26.7,12.3,30.42,NW,315,0.0,0.0,54,0.00,FEW,,0.00,0.0,WeatherDisplay:10.37,2013-11-13 01:51:00,
2013-11-12 20:56:00,26.6,12.2,30.42,NW,315,0.0,0.0,54,0.00,FEW,,0.00,0.0,WeatherDisplay:10.37,2013-11-13 01:56:00,
2013-11-12 21:01:00,26.3,11.9,30.43,NW,315,0.0,0.0,54,0.00,CLR,,0.00,0.0,WeatherDisplay:10.37,2013-11-13 02:01:00,
2013-11-12 21:06:00,25.8,11.4,30.43,NW,315,0.0,0.0,54,0.00,CLR,,0.00,0.0,WeatherDisplay:10.37,2013-11-13 02:06:00,
2013-11-12 21:11:00,25.4,11.9,30.42,NW,315,0.0,0.0,56,0.00,CLR,,0.00,0.0,WeatherDisplay:10.37,2013-11-13 02:11:00,
2013-11-12 21:16:00,25.0,11.9,30.43,NW,315,0.0,0.0,57,0.00,CLR,,0.00,0.0,WeatherDisplay:10.37,2013-11-13 02:16:00,
2013-11-12 21:21:00,24.7,11.6,30.43,NW,315,0.0,0.0,57,0.00,CLR,,0.00,0.0,WeatherDisplay:10.37,2013-11-13 02:21:00,
2013-11-12 21:26:00,24.4,11.7,30.43,NW,315,0.0,0.0,58,0.00,CLR,,0.00,0.0,WeatherDisplay:10.37,2013-11-13 02:26:00,
2013-11-12 21:31:00,24.4,12.1,30.43,NW,315,0.0,0.0,59,0.00,CLR,,0.00,0.0,WeatherDisplay:10.37,2013-11-13 02:31:00,
2013-11-12 21:36:00,24.4,12.1,30.43,NW,315,0.0,0.0,59,0.00,CLR,,0.00,0.0,WeatherDisplay:10.37,2013-11-13 02:36:00,
2013-11-12 21:41:00,24.2,12.3,30.43,NW,315,0.0,0.0,60,0.00,CLR,,0.00,0.0,WeatherDisplay:10.37,2013-11-13 02:41:00,
2013-11-12 21:46:00,24.4,12.9,30.43,NW,315,0.8,1.5,61,0.00,CLR,,0.00,0.0,WeatherDisplay:10.37,2013-11-13 02:46:00,
2013-11-12 21:51:00,26.0,14.4,30.43,NW,310,3.2,4.6,61,0.00,CLR,,0.00,0.0,WeatherDisplay:10.37,2013-11-13 02:51:00,
2013-11-12 21:56:00,27.6,14.3,30.43,WNW,293,6.3,6.3,57,0.00,CLR,,0.00,0.0,WeatherDisplay:10.37,2013-11-13 02:56:00,
2013-11-12 22:01:00,29.3,14.7,30.43,WNW,284,4.8,7.5,54,0.00,CLR,,0.00,0.0,WeatherDisplay:10.37,2013-11-13 03:01:00,
2013-11-12 22:06:00,30.7,14.7,30.43,West,281,12.4,13.8,51,0.00,CLR,,0.00,0.0,WeatherDisplay:10.37,2013-11-13 03:06:00,
2013-11-12 22:11:00,31.6,14.1,30.43,NW,311,9.3,13.8,48,0.00,CLR,,0.00,0.0,WeatherDisplay:10.37,2013-11-13 03:11:00,
2013-11-12 22:16:00,32.2,14.2,30.43,West,267,6.6,9.0,47,0.00,CLR,,0.00,0.0,WeatherDisplay:10.37,2013-11-13 03:16:00,
2013-11-12 22:21:00,32.2,14.2,30.43,WNW,302,3.7,6.0,47,0.00,CLR,,0.00,0.0,WeatherDisplay:10.37,2013-11-13 03:21:00,
2013-11-12 22:26:00,32.1,13.6,30.42,WNW,290,3.8,5.8,46,0.00,CLR,,0.00,0.0,WeatherDisplay:10.37,2013-11-13 03:26:00,
2013-11-12 22:31:00,31.9,13.4,30.42,WNW,292,4.2,8.1,46,0.00,CLR,,0.00,0.0,WeatherDisplay:10.37,2013-11-13 03:31:00,
2013-11-12 22:36:00,31.6,13.7,30.43,NNW,346,3.0,7.5,47,0.00,CLR,,0.00,0.0,WeatherDisplay:10.37,2013-11-13 03:36:00,
2013-11-12 22:41:00,31.3,13.4,30.43,NW,308,0.1,3.5,47,0.00,CLR,,0.00,0.0,WeatherDisplay:10.37,2013-11-13 03:41:00,
2013-11-12 22:46:00,31.0,13.1,30.43,NW,307,0.0,0.0,47,0.00,CLR,,0.00,0.0,WeatherDisplay:10.37,2013-11-13 03:46:00,
2013-11-12 22:51:00,30.7,13.3,30.43,NW,307,0.0,0.0,48,0.00,CLR,,0.00,0.0,WeatherDisplay:10.37,2013-11-13 03:51:00,
2013-11-12 22:56:00,30.3,12.9,30.43,NW,307,0.0,0.0,48,0.00,CLR,,0.00,0.0,WeatherDisplay:10.37,2013-11-13 03:56:00,
2013-11-12 23:01:00,29.8,12.9,30.43,NW,307,0.0,0.0,49,0.00,CLR,,0.00,0.0,WeatherDisplay:10.37,2013-11-13 04:01:00,
2013-11-12 23:06:00,29.3,12.9,30.43,NW,307,0.0,0.0,50,0.00,CLR,,0.00,0.0,WeatherDisplay:10.37,2013-11-13 04:06:00,
2013-11-12 23:11:00,28.8,12.9,30.43,NW,307,0.0,0.0,51,0.00,SCT,,0.00,0.0,WeatherDisplay:10.37,2013-11-13 04:11:00,
2013-11-12 23:16:00,28.4,13.0,30.43,West,276,2.3,6.0,52,0.00,SCT,,0.00,0.0,WeatherDisplay:10.37,2013-11-13 04:16:00,
2013-11-12 23:21:00,29.0,14.4,30.43,NW,304,4.0,9.2,54,0.00,SCT,,0.00,0.0,WeatherDisplay:10.37,2013-11-13 04:21:00,
2013-11-12 23:26:00,29.7,15.1,30.43,NNW,333,7.2,8.1,54,0.00,SCT,,0.00,0.0,WeatherDisplay:10.37,2013-11-13 04:26:00,
2013-11-12 23:31:00,30.1,15.0,30.43,NW,311,4.9,5.8,53,0.00,SCT,,0.00,0.0,WeatherDisplay:10.37,2013-11-13 04:31:00,
2013-11-12 23:36:00,30.4,14.9,30.43,NNW,329,7.6,9.0,52,0.00,SCT,,0.00,0.0,WeatherDisplay:10.37,2013-11-13 04:36:00,
2013-11-12 23:41:00,30.6,14.6,30.44,NW,319,5.1,9.2,51,0.00,SCT,,0.00,0.0,WeatherDisplay:10.37,2013-11-13 04:41:00,
2013-11-12 23:46:00,30.6,14.6,30.44,NW,319,0.0,1.5,51,0.00,SCT,,0.00,0.0,WeatherDisplay:10.37,2013-11-13 04:46:00,
2013-11-12 23:51:00,30.4,14.4,30.44,NW,319,0.0,3.5,51,0.00,SCT,,0.00,0.0,WeatherDisplay:10.37,2013-11-13 04:51:00,
2013-11-12 23:56:00,30.1,14.1,30.44,NW,319,0.0,0.0,51,0.00,SCT,,0.00,0.0,WeatherDisplay:10.37,2013-11-13 04:56:00,